Time;durP1;ratioP1;P1;durP2;ratioP2;P2;SDS_P1;SDS_P2;PMS_P1;PMS_P2;Temp;Humidity;BMP_temperature;BMP_pressure;BME280_temperature;BME280_humidity;BME280_pressure;Samples;Min_cycle;Max_cycle;Signal;HPM_P1;HPM_P2
2022/08/29 00:00:26;;;;;;;16.40;7.65;;;20.10;99.90;;;;;;5011131;28;20486;-81
2022/08/29 00:02:55;;;;;;;11.10;6.82;;;20.10;99.90;;;;;;5011120;28;20092;-82
2022/08/29 00:05:26;;;;;;;17.02;6.95;;;20.10;99.90;;;;;;5009287;28;20047;-81
2022/08/29 00:07:53;;;;;;;10.20;7.07;;;20.10;99.90;;;;;;5008608;28;20109;-82
2022/08/29 00:10:21;;;;;;;10.02;7.22;;;20.00;99.90;;;;;;5007399;28;20078;-82
2022/08/29 00:12:48;;;;;;;11.60;7.10;;;20.00;99.90;;;;;;5006204;28;20144;-82
2022/08/29 00:15:15;;;;;;;10.27;7.32;;;19.90;99.90;;;;;;4988544;28;20089;-82
2022/08/29 00:17:42;;;;;;;10.27;7.82;;;20.00;99.90;;;;;;5004259;28;20501;-81
2022/08/29 00:20:13;;;;;;;9.13;7.22;;;19.90;99.90;;;;;;5002860;28;20085;-82
2022/08/29 00:22:40;;;;;;;13.80;7.95;;;20.00;99.90;;;;;;4984647;28;20106;-82
2022/08/29 00:25:09;;;;;;;11.55;6.95;;;20.00;99.90;;;;;;5000218;28;20129;-80
2022/08/29 00:27:35;;;;;;;8.65;7.28;;;19.90;99.90;;;;;;4985811;28;20085;-82
2022/08/29 00:30:05;;;;;;;11.40;7.97;;;20.00;99.90;;;;;;5018462;28;20085;-82
2022/08/29 00:32:35;;;;;;;9.13;8.17;;;19.90;99.90;;;;;;5017385;28;20136;-82
2022/08/29 00:35:09;;;;;;;11.55;7.40;;;19.90;99.90;;;;;;5016542;28;20343;-83
2022/08/29 00:37:36;;;;;;;15.27;8.25;;;19.90;99.90;;;;;;5012403;28;20056;-80
2022/08/29 00:40:05;;;;;;;7.88;6.82;;;19.90;99.90;;;;;;5014048;28;20050;-82
2022/08/29 00:42:34;;;;;;;11.13;7.47;;;19.90;99.90;;;;;;5012626;28;20056;-82
2022/08/29 00:45:06;;;;;;;7.47;6.43;;;19.90;99.90;;;;;;4988392;28;20144;-82
2022/08/29 00:47:37;;;;;;;12.77;9.10;;;19.90;99.90;;;;;;4999282;28;20050;-81
2022/08/29 00:50:07;;;;;;;9.70;7.30;;;19.90;99.90;;;;;;5002747;28;20100;-82
2022/08/29 00:52:39;;;;;;;11.35;6.53;;;19.80;99.90;;;;;;4998349;28;20042;-81
2022/08/29 00:55:11;;;;;;;10.38;7.63;;;19.80;99.90;;;;;;4997483;28;20118;-82
2022/08/29 00:57:41;;;;;;;12.85;7.57;;;19.70;99.90;;;;;;5005400;28;20136;-82
2022/08/29 01:00:09;;;;;;;9.90;7.55;;;19.60;99.90;;;;;;5010667;28;20221;-80
2022/08/29 01:02:38;;;;;;;10.05;7.28;;;19.70;99.90;;;;;;4999704;28;20188;-79
2022/08/29 01:05:09;;;;;;;10.52;7.03;;;19.70;99.90;;;;;;5013929;28;20470;-82
2022/08/29 01:07:37;;;;;;;13.50;8.60;;;19.60;99.90;;;;;;5015168;28;20081;-80
2022/08/29 01:10:06;;;;;;;;;;;19.60;99.90;;;;;;5016387;28;20049;-82
2022/08/29 01:12:39;;;;;;;10.70;7.20;;;19.60;99.90;;;;;;5017837;28;19922;-81
2022/08/29 01:15:11;;;;;;;12.43;7.75;;;19.50;99.90;;;;;;5017442;28;20140;-82
2022/08/29 01:17:44;;;;;;;10.77;7.40;;;19.50;99.90;;;;;;5017838;28;20127;-81
2022/08/29 01:21:04;;;;;;;10.25;7.22;;;19.50;99.90;;;;;;4997231;28;20054;-80
2022/08/29 01:23:48;;;;;;;22.52;9.68;;;19.50;99.90;;;;;;5012065;28;20137;-81
2022/08/29 01:26:15;;;;;;;11.07;7.32;;;19.50;99.90;;;;;;5003749;28;20096;-82
2022/08/29 01:28:44;;;;;;;9.63;7.80;;;19.50;99.90;;;;;;5005390;28;20093;-82
2022/08/29 01:31:16;;;;;;;10.35;7.63;;;19.50;99.90;;;;;;5006652;28;20053;-82
2022/08/29 01:34:03;;;;;;;9.70;6.88;;;19.40;99.90;;;;;;5010285;28;20053;-81
2022/08/29 01:36:58;;;;;;;10.75;6.93;;;19.40;99.90;;;;;;4992595;28;20113;-82
2022/08/29 01:39:29;;;;;;;8.75;7.00;;;19.40;99.90;;;;;;5006173;28;20145;-81
2022/08/29 01:41:57;;;;;;;8.82;7.40;;;19.30;99.90;;;;;;5007074;28;20144;-82
2022/08/29 01:44:25;;;;;;;10.95;7.05;;;19.30;99.90;;;;;;5007168;28;20046;-81
2022/08/29 01:46:55;;;;;;;10.73;7.07;;;19.30;99.90;;;;;;5004771;28;20043;-82
2022/08/29 01:49:28;;;;;;;12.02;6.75;;;19.30;99.90;;;;;;5012725;28;20073;-81
2022/08/29 01:51:55;;;;;;;11.88;7.38;;;19.20;99.90;;;;;;4998084;28;20054;-81
2022/08/29 01:54:21;;;;;;;11.10;7.32;;;19.30;99.90;;;;;;4998799;28;20088;-82
2022/08/29 01:56:51;;;;;;;12.65;8.18;;;19.20;99.90;;;;;;5016970;28;20068;-82
2022/08/29 01:59:26;;;;;;;12.13;8.10;;;19.30;99.90;;;;;;5017559;28;20472;-82
2022/08/29 02:01:57;;;;;;;14.98;7.95;;;19.20;99.90;;;;;;5018751;28;20049;-82
2022/08/29 02:04:24;;;;;;;11.52;7.93;;;19.20;99.90;;;;;;5017663;28;20057;-81
2022/08/29 02:06:51;;;;;;;9.30;8.18;;;19.20;99.90;;;;;;5001019;28;20188;-82
2022/08/29 02:09:18;;;;;;;11.35;7.50;;;19.20;99.90;;;;;;5001021;28;20078;-81
2022/08/29 02:11:45;;;;;;;14.65;8.30;;;19.10;99.90;;;;;;5003200;28;20141;-82
2022/08/29 02:14:12;;;;;;;9.02;7.68;;;19.20;99.90;;;;;;5003663;28;20073;-81
2022/08/29 02:16:45;;;;;;;10.40;7.63;;;19.10;99.90;;;;;;5010140;28;20100;-81
2022/08/29 02:19:12;;;;;;;12.63;7.50;;;19.00;99.90;;;;;;5004873;28;20046;-81
2022/08/29 02:21:39;;;;;;;10.68;7.13;;;19.00;99.90;;;;;;5007243;28;20053;-82
2022/08/29 02:24:07;;;;;;;11.90;7.38;;;19.00;99.90;;;;;;5007588;28;20046;-82
2022/08/29 02:26:51;;;;;;;10.73;7.85;;;19.00;99.90;;;;;;5014279;28;20049;-81
2022/08/29 02:29:18;;;;;;;10.43;7.45;;;19.00;99.90;;;;;;5016649;28;20047;-82
2022/08/29 02:31:45;;;;;;;15.43;8.25;;;18.90;99.90;;;;;;5013213;28;20080;-82
2022/08/29 02:34:12;;;;;;;11.27;7.70;;;18.90;99.90;;;;;;5004572;28;20130;-83
2022/08/29 02:36:39;;;;;;;12.00;8.75;;;18.90;99.90;;;;;;5001984;28;20082;-82
2022/08/29 02:39:08;;;;;;;8.52;7.70;;;18.90;99.90;;;;;;5000630;28;20088;-82
2022/08/29 02:41:36;;;;;;;13.20;7.78;;;18.90;99.90;;;;;;4997885;28;20054;-81
2022/08/29 02:44:03;;;;;;;8.43;7.43;;;18.80;99.90;;;;;;4993119;28;20520;-82
2022/08/29 02:46:31;;;;;;;9.73;7.80;;;18.80;99.90;;;;;;4998108;28;20061;-81
2022/08/29 02:48:58;;;;;;;12.20;7.22;;;18.90;99.90;;;;;;5013131;28;20046;-81
2022/08/29 02:51:29;;;;;;;12.77;7.50;;;18.80;99.90;;;;;;5010756;28;20515;-82
2022/08/29 02:53:56;;;;;;;10.55;7.68;;;18.80;99.90;;;;;;5007215;28;20140;-82
2022/08/29 02:56:23;;;;;;;11.73;7.93;;;18.80;99.90;;;;;;5016804;28;20117;-80
2022/08/29 02:58:50;;;;;;;11.32;7.90;;;18.90;99.90;;;;;;5017241;28;20053;-82
2022/08/29 03:01:19;;;;;;;13.20;7.72;;;18.80;99.90;;;;;;5016452;28;20106;-81
2022/08/29 03:03:46;;;;;;;11.40;7.38;;;18.80;99.90;;;;;;5010147;28;20137;-82
2022/08/29 03:06:13;;;;;;;8.18;7.32;;;18.80;99.90;;;;;;5009912;28;20054;-82
2022/08/29 03:08:39;;;;;;;11.20;7.55;;;18.90;99.90;;;;;;5009197;28;20547;-81
2022/08/29 03:11:06;;;;;;;13.18;7.45;;;18.80;99.90;;;;;;5007423;28;20105;-82
2022/08/29 03:13:33;;;;;;;8.57;6.60;;;18.80;99.90;;;;;;5006988;28;20081;-81
2022/08/29 03:16:01;;;;;;;9.77;7.40;;;18.80;99.90;;;;;;5005524;28;20050;-81
2022/08/29 03:18:28;;;;;;;8.93;7.00;;;18.80;99.90;;;;;;4986757;28;20100;-82
2022/08/29 03:20:55;;;;;;;8.68;7.30;;;18.80;99.90;;;;;;5010954;28;20480;-82
2022/08/29 03:23:22;;;;;;;13.55;7.07;;;18.70;99.90;;;;;;5015714;28;20141;-82
2022/08/29 03:25:49;;;;;;;9.13;7.10;;;18.70;99.90;;;;;;5017404;28;20119;-82
2022/08/29 03:28:16;;;;;;;7.85;6.88;;;18.60;99.90;;;;;;5017069;28;20050;-81
2022/08/29 03:30:42;;;;;;;10.23;7.88;;;18.60;99.90;;;;;;5006886;28;20089;-82
2022/08/29 03:33:09;;;;;;;11.32;7.63;;;18.50;99.90;;;;;;5001322;28;20137;-82
2022/08/29 03:35:38;;;;;;;12.30;7.85;;;18.60;99.90;;;;;;5013332;28;20140;-82
2022/08/29 03:38:05;;;;;;;8.40;7.35;;;18.50;99.90;;;;;;5003654;28;20057;-82
2022/08/29 03:40:31;;;;;;;7.90;6.70;;;18.60;99.90;;;;;;5001275;28;20082;-82
2022/08/29 03:42:59;;;;;;;14.30;7.43;;;18.50;99.90;;;;;;5001360;28;20060;-82
2022/08/29 03:45:26;;;;;;;11.23;7.53;;;18.50;99.90;;;;;;5012098;28;20197;-83
2022/08/29 03:47:52;;;;;;;11.90;7.60;;;18.50;99.90;;;;;;5000319;28;20050;-82
2022/08/29 03:50:20;;;;;;;10.18;7.03;;;18.50;99.90;;;;;;5000618;28;20109;-81
2022/08/29 03:52:47;;;;;;;13.30;7.75;;;18.50;99.90;;;;;;5002215;28;20054;-82
2022/08/29 03:55:15;;;;;;;10.20;7.78;;;18.50;99.90;;;;;;5009407;28;20568;-82
2022/08/29 03:57:42;;;;;;;11.40;8.02;;;18.60;99.90;;;;;;4993500;28;20086;-82
2022/08/29 04:00:15;;;;;;;9.95;7.80;;;18.50;99.90;;;;;;5011156;28;20061;-81
2022/08/29 04:02:44;;;;;;;10.48;8.10;;;18.50;99.90;;;;;;5002443;28;20056;-81
2022/08/29 04:05:13;;;;;;;10.05;7.32;;;18.50;99.90;;;;;;5013741;28;20454;-82
2022/08/29 04:07:52;;;;;;;11.57;7.20;;;18.40;99.90;;;;;;4998081;28;20081;-81
2022/08/29 04:10:24;;;;;;;10.60;7.25;;;18.40;99.90;;;;;;5015237;28;20101;-82
2022/08/29 04:12:52;;;;;;;8.90;6.93;;;18.40;99.90;;;;;;5017023;28;20085;-82
2022/08/29 04:15:21;;;;;;;8.55;6.95;;;18.40;99.90;;;;;;5003044;28;20050;-82
2022/08/29 04:17:53;;;;;;;9.55;7.50;;;18.40;99.90;;;;;;5002901;28;20085;-82
2022/08/29 04:20:22;;;;;;;8.55;7.25;;;18.40;99.90;;;;;;4983965;28;20061;-83
2022/08/29 04:22:52;;;;;;;13.88;8.05;;;18.50;99.90;;;;;;5014812;28;20046;-83
2022/08/29 04:25:20;;;;;;;9.55;7.82;;;18.30;99.90;;;;;;5018987;28;20141;-82
2022/08/29 04:27:48;;;;;;;11.60;8.35;;;18.30;99.90;;;;;;5017920;28;20109;-82
2022/08/29 04:30:18;;;;;;;9.57;7.93;;;18.30;99.90;;;;;;5015601;28;20116;-82
2022/08/29 04:32:45;;;;;;;14.15;9.32;;;18.30;99.90;;;;;;5004666;28;20416;-81
2022/08/29 04:35:12;;;;;;;9.73;7.22;;;18.20;99.90;;;;;;5004869;28;20084;-81
2022/08/29 04:37:40;;;;;;;11.63;7.93;;;18.20;99.90;;;;;;4990014;28;20089;-82
2022/08/29 04:40:09;;;;;;;11.85;7.93;;;18.20;99.90;;;;;;5008273;28;20510;-81
2022/08/29 04:42:37;;;;;;;9.13;8.07;;;18.20;99.90;;;;;;5010292;28;20051;-81
2022/08/29 04:45:11;;;;;;;9.85;7.85;;;18.10;99.90;;;;;;5011879;28;20081;-82
2022/08/29 04:47:39;;;;;;;12.05;7.57;;;18.10;99.90;;;;;;5000088;28;20494;-82
2022/08/29 04:50:09;;;;;;;11.15;6.78;;;18.10;99.90;;;;;;5010540;28;20096;-81
2022/08/29 04:52:36;;;;;;;9.52;7.55;;;18.10;99.90;;;;;;5012555;28;20039;-82
2022/08/29 04:55:04;;;;;;;8.88;7.10;;;18.10;99.90;;;;;;5009254;28;20089;-81
2022/08/29 04:57:31;;;;;;;12.55;8.13;;;18.10;99.90;;;;;;5004587;28;20038;-79
2022/08/29 04:59:58;;;;;;;11.15;7.45;;;18.00;99.90;;;;;;5007502;28;20351;-81
2022/08/29 05:02:26;;;;;;;12.27;8.32;;;17.90;99.90;;;;;;5000185;28;20125;-81
2022/08/29 05:04:55;;;;;;;9.75;7.22;;;18.10;99.90;;;;;;4999591;28;20057;-83
2022/08/29 05:07:25;;;;;;;11.35;8.05;;;18.10;99.90;;;;;;5000612;28;20046;-82
2022/08/29 05:09:58;;;;;;;13.95;8.85;;;18.10;99.90;;;;;;5018755;28;20108;-82
2022/08/29 05:12:28;;;;;;;11.10;8.05;;;18.00;99.90;;;;;;5017137;28;20042;-82
2022/08/29 05:14:56;;;;;;;13.68;7.82;;;18.10;99.90;;;;;;5015322;28;20046;-81
2022/08/29 05:17:23;;;;;;;12.90;8.10;;;18.10;99.90;;;;;;5013607;28;20480;-82
2022/08/29 05:19:51;;;;;;;12.80;8.07;;;18.00;99.90;;;;;;5012616;28;20543;-82
2022/08/29 05:22:18;;;;;;;11.18;7.25;;;18.10;99.90;;;;;;4999136;28;20085;-83
2022/08/29 05:24:46;;;;;;;13.63;7.85;;;18.10;99.90;;;;;;4993378;28;20546;-82
2022/08/29 05:27:19;;;;;;;12.40;8.23;;;18.10;99.90;;;;;;5009400;28;20500;-82
2022/08/29 05:29:47;;;;;;;10.18;7.60;;;18.10;99.90;;;;;;5008202;28;20420;-82
2022/08/29 05:32:16;;;;;;;13.65;7.72;;;18.10;99.90;;;;;;4998096;28;20084;-81
2022/08/29 05:34:43;;;;;;;8.95;7.53;;;18.10;99.90;;;;;;5006035;28;20054;-82
2022/08/29 05:37:13;;;;;;;8.98;7.65;;;18.10;99.90;;;;;;4997395;28;20133;-83
2022/08/29 05:39:41;;;;;;;10.88;7.35;;;18.20;99.90;;;;;;4996930;28;20054;-82
2022/08/29 05:42:10;;;;;;;9.73;7.55;;;18.20;99.90;;;;;;5003351;28;20073;-82
2022/08/29 05:44:39;;;;;;;13.77;7.30;;;18.20;99.90;;;;;;5002202;28;20076;-81
2022/08/29 05:47:08;;;;;;;12.75;7.38;;;18.20;99.90;;;;;;5000627;28;20081;-81
2022/08/29 05:49:39;;;;;;;10.68;8.00;;;18.00;99.90;;;;;;4999918;28;20070;-81
2022/08/29 05:52:07;;;;;;;8.32;7.47;;;18.30;99.90;;;;;;4998552;28;20077;-82
2022/08/29 05:54:35;;;;;;;12.23;8.13;;;18.30;99.90;;;;;;5002588;28;20233;-82
2022/08/29 05:57:03;;;;;;;10.68;7.80;;;18.30;99.90;;;;;;5016246;28;20136;-80
2022/08/29 05:59:29;;;;;;;9.68;7.40;;;18.40;99.90;;;;;;5015155;28;20133;-81
2022/08/29 06:01:56;;;;;;;8.00;7.20;;;18.40;99.90;;;;;;5014196;28;20148;-82
2022/08/29 06:04:23;;;;;;;11.63;7.10;;;18.40;99.90;;;;;;5013011;28;20139;-81
2022/08/29 06:06:50;;;;;;;8.77;6.82;;;18.40;99.90;;;;;;5012250;28;20049;-82
2022/08/29 06:09:16;;;;;;;10.00;8.02;;;18.50;99.90;;;;;;5011592;28;20084;-81
2022/08/29 06:11:49;;;;;;;9.38;6.72;;;18.50;99.90;;;;;;5009340;28;20572;-81
2022/08/29 06:14:16;;;;;;;10.00;7.57;;;18.50;99.90;;;;;;5005095;28;20140;-83
2022/08/29 06:16:44;;;;;;;13.68;8.45;;;18.60;99.90;;;;;;5007096;28;20089;-82
2022/08/29 06:19:11;;;;;;;13.48;9.98;;;18.60;99.90;;;;;;5007433;28;20148;-82
2022/08/29 06:21:38;;;;;;;14.85;9.77;;;18.60;99.90;;;;;;4991591;28;20046;-82
2022/08/29 06:24:05;;;;;;;15.00;12.32;;;18.70;99.90;;;;;;5011209;28;20504;-81
2022/08/29 06:26:33;;;;;;;19.80;11.07;;;18.70;99.90;;;;;;4998167;28;20424;-80
2022/08/29 06:29:02;;;;;;;16.77;11.38;;;18.70;99.90;;;;;;5004105;28;20534;-81
2022/08/29 06:31:28;;;;;;;18.75;12.55;;;18.70;99.90;;;;;;5012352;28;20109;-82
2022/08/29 06:33:58;;;;;;;18.30;12.15;;;18.60;99.90;;;;;;5014956;28;20068;-80
2022/08/29 06:36:26;;;;;;;18.83;13.15;;;18.70;99.90;;;;;;4997254;28;20080;-82
2022/08/29 06:38:57;;;;;;;22.85;13.60;;;18.70;99.90;;;;;;5002378;28;20139;-82
2022/08/29 06:41:25;;;;;;;23.23;12.43;;;18.70;99.90;;;;;;4996923;28;20074;-82
2022/08/29 06:43:53;;;;;;;22.15;13.05;;;18.80;99.90;;;;;;4999014;28;20492;-81
2022/08/29 06:46:26;;;;;;;18.52;14.23;;;18.90;99.90;;;;;;4985353;28;20144;-82
2022/08/29 06:48:55;;;;;;;20.65;13.55;;;18.90;99.90;;;;;;5007314;28;20484;-79
2022/08/29 06:51:23;;;;;;;22.02;13.55;;;19.00;99.90;;;;;;5022921;28;20046;-82
2022/08/29 06:53:50;;;;;;;16.20;13.15;;;18.90;99.90;;;;;;5013121;28;20050;-81
2022/08/29 06:56:18;;;;;;;21.63;13.65;;;19.00;99.90;;;;;;5010491;28;20206;-82
2022/08/29 06:58:45;;;;;;;19.33;14.07;;;19.00;99.90;;;;;;5008812;28;20053;-82
2022/08/29 07:01:15;;;;;;;21.35;13.98;;;19.10;99.90;;;;;;5008525;28;20149;-82
2022/08/29 07:03:42;;;;;;;16.75;12.55;;;19.10;99.90;;;;;;5007767;28;20042;-82
2022/08/29 07:06:10;;;;;;;18.50;12.63;;;19.10;99.90;;;;;;4989322;28;20129;-82
2022/08/29 07:08:37;;;;;;;16.38;11.90;;;19.10;99.90;;;;;;5007343;28;20046;-82
2022/08/29 07:11:25;;;;;;;19.02;12.75;;;19.10;99.90;;;;;;5008778;28;20577;-82
2022/08/29 07:13:55;;;;;;;14.77;11.80;;;19.10;99.90;;;;;;5003317;28;20085;-82
2022/08/29 07:16:22;;;;;;;15.40;12.60;;;19.20;99.90;;;;;;4997631;28;20078;-82
2022/08/29 07:18:52;;;;;;;14.33;12.23;;;19.20;99.90;;;;;;5001442;28;20086;-81
2022/08/29 07:21:21;;;;;;;14.20;11.73;;;19.20;99.90;;;;;;5004528;28;20157;-80
2022/08/29 07:23:51;;;;;;;14.88;12.48;;;19.30;99.90;;;;;;5001979;28;20571;-82
2022/08/29 07:26:28;;;;;;;16.13;11.55;;;19.30;99.90;;;;;;5000236;28;20074;-82
2022/08/29 07:28:59;;;;;;;18.10;11.77;;;19.40;99.90;;;;;;5011426;28;20419;-81
2022/08/29 07:31:29;;;;;;;12.65;10.95;;;19.50;99.90;;;;;;4999460;28;20077;-81
2022/08/29 07:33:56;;;;;;;17.83;11.57;;;19.60;99.90;;;;;;5000651;28;20073;-81
2022/08/29 07:36:30;;;;;;;13.75;10.20;;;19.60;99.90;;;;;;5018063;28;20057;-81
2022/08/29 07:38:57;;;;;;;13.63;11.20;;;19.70;99.90;;;;;;5009372;28;20133;-82
2022/08/29 07:41:24;;;;;;;12.55;10.35;;;19.70;99.90;;;;;;5003303;28;20073;-81
2022/08/29 07:43:51;;;;;;;14.82;10.45;;;19.70;99.90;;;;;;5010118;28;20077;-82
2022/08/29 07:46:19;;;;;;;13.95;10.07;;;19.70;99.90;;;;;;5004778;28;20047;-81
2022/08/29 07:48:47;;;;;;;15.05;11.68;;;19.90;99.90;;;;;;5007747;28;20471;-82
2022/08/29 07:51:17;;;;;;;13.95;11.80;;;19.90;99.90;;;;;;5008822;28;20069;-81
2022/08/29 07:53:45;;;;;;;15.95;11.02;;;20.00;99.90;;;;;;5007985;28;20137;-82
2022/08/29 07:56:17;;;;;;;13.55;10.77;;;20.00;99.90;;;;;;5007959;28;20093;-83
2022/08/29 07:58:43;;;;;;;18.83;11.90;;;20.00;99.90;;;;;;5008334;28;20057;-82
2022/08/29 08:01:11;;;;;;;16.27;11.75;;;20.10;99.90;;;;;;5008728;28;20077;-81
2022/08/29 08:03:47;;;;;;;14.18;10.90;;;20.10;99.90;;;;;;5001565;28;20112;-82
2022/08/29 08:06:14;;;;;;;14.63;10.95;;;20.20;99.90;;;;;;5006820;28;20077;-82
2022/08/29 08:08:40;;;;;;;13.45;10.10;;;20.30;99.90;;;;;;5003204;28;20125;-81
2022/08/29 08:11:08;;;;;;;14.55;10.05;;;20.30;99.90;;;;;;5012153;28;20093;-84
2022/08/29 08:13:36;;;;;;;17.00;9.80;;;20.30;99.90;;;;;;5004512;28;20046;-81
2022/08/29 08:16:10;;;;;;;14.55;9.55;;;20.40;99.90;;;;;;5007801;28;20061;-82
2022/08/29 08:18:38;;;;;;;15.43;9.10;;;20.40;99.90;;;;;;4990349;28;20594;-81
2022/08/29 08:21:05;;;;;;;11.02;8.93;;;20.50;99.90;;;;;;5019237;28;20081;-80
2022/08/29 08:23:32;;;;;;;13.15;9.75;;;20.50;99.90;;;;;;5013687;28;20049;-80
2022/08/29 08:25:59;;;;;;;11.05;9.23;;;20.50;99.90;;;;;;5019546;28;20050;-81
2022/08/29 08:28:29;;;;;;;12.07;9.32;;;20.60;99.90;;;;;;5008650;28;20073;-81
2022/08/29 08:30:58;;;;;;;13.70;9.52;;;20.60;99.90;;;;;;5011381;28;20050;-81
2022/08/29 08:33:32;;;;;;;11.10;9.77;;;20.70;99.90;;;;;;5010403;28;20114;-81
2022/08/29 08:36:01;;;;;;;15.70;10.70;;;20.70;99.90;;;;;;5010895;28;20120;-80
2022/08/29 08:38:28;;;;;;;19.77;10.82;;;20.80;99.90;;;;;;5008123;28;20073;-82
2022/08/29 08:41:06;;;;;;;14.13;9.55;;;20.80;99.90;;;;;;5007338;28;20049;-79
2022/08/29 08:43:50;;;;;;;13.07;9.45;;;20.80;99.90;;;;;;5007389;28;20099;-80
2022/08/29 08:46:27;;;;;;;12.07;9.07;;;20.90;99.90;;;;;;4999732;28;20057;-82
2022/08/29 08:48:57;;;;;;;13.70;8.95;;;21.00;99.90;;;;;;4990976;28;20056;-79
2022/08/29 08:51:29;;;;;;;12.07;8.43;;;21.10;99.90;;;;;;5004510;28;20081;-82
2022/08/29 08:53:58;;;;;;;9.90;8.10;;;21.20;99.90;;;;;;5006943;28;20085;-78
2022/08/29 08:56:34;;;;;;;12.90;9.60;;;21.30;99.90;;;;;;5003271;28;20472;-78
2022/08/29 08:59:24;;;;;;;16.35;8.73;;;21.30;99.90;;;;;;5006415;28;20093;-81
2022/08/29 09:01:54;;;;;;;;;;;21.30;99.90;;;;;;5003943;28;20105;-81
2022/08/29 09:04:31;;;;;;;10.57;8.35;;;21.30;99.90;;;;;;5003952;28;19921;-81
2022/08/29 09:07:13;;;;;;;11.65;8.50;;;21.40;99.90;;;;;;5010272;28;20496;-79
2022/08/29 09:10:15;;;;;;;12.40;8.40;;;21.40;99.90;;;;;;5008665;28;20077;-80
2022/08/29 09:13:00;;;;;;;12.90;7.47;;;21.50;99.90;;;;;;5002863;28;20110;-79
2022/08/29 09:15:55;;;;;;;17.25;8.70;;;21.50;99.90;;;;;;5007273;28;20068;-77
2022/08/29 09:18:26;;;;;;;14.95;8.30;;;21.60;99.90;;;;;;5003651;28;20108;-76
2022/08/29 09:20:53;;;;;;;10.30;8.18;;;21.50;99.90;;;;;;4999815;28;20481;-78
2022/08/29 09:23:41;;;;;;;10.20;7.65;;;21.50;99.90;;;;;;5001400;28;20073;-81
2022/08/29 09:26:11;;;;;;;16.33;9.02;;;21.60;99.90;;;;;;4985394;28;20061;-80
2022/08/29 09:28:39;;;;;;;12.57;8.45;;;21.60;99.90;;;;;;5005875;28;20054;-79
2022/08/29 09:31:22;;;;;;;10.13;7.85;;;21.60;99.90;;;;;;5005030;28;20048;-79
2022/08/29 09:34:04;;;;;;;11.65;9.02;;;21.60;99.90;;;;;;5006425;28;20459;-80
2022/08/29 09:36:44;;;;;;;14.18;7.85;;;21.60;99.90;;;;;;5010257;28;20100;-80
2022/08/29 09:39:15;;;;;;;13.20;7.65;;;21.70;99.90;;;;;;5002824;28;20053;-79
2022/08/29 09:41:43;;;;;;;10.27;6.97;;;21.70;99.90;;;;;;5009965;28;20088;-78
2022/08/29 09:44:25;;;;;;;9.05;7.40;;;21.70;99.90;;;;;;4991260;28;20081;-79
2022/08/29 09:47:11;;;;;;;14.63;7.70;;;21.80;99.90;;;;;;4984084;28;20556;-77
2022/08/29 09:49:41;;;;;;;9.93;7.28;;;21.80;99.90;;;;;;5002226;28;20042;-81
2022/08/29 09:52:14;;;;;;;12.48;7.80;;;21.80;99.90;;;;;;5005453;28;20109;-78
2022/08/29 09:54:42;;;;;;;11.93;6.70;;;21.80;99.90;;;;;;5005730;28;20461;-80
2022/08/29 09:57:22;;;;;;;10.45;8.77;;;21.90;99.90;;;;;;5006793;28;20496;-81
2022/08/29 10:00:10;;;;;;;10.80;7.38;;;22.00;99.90;;;;;;5005084;28;20109;-81
2022/08/29 10:02:52;;;;;;;12.02;7.45;;;22.00;99.90;;;;;;4992916;28;20085;-78
2022/08/29 10:05:33;;;;;;;9.45;7.30;;;22.00;99.90;;;;;;4992796;28;20128;-81
2022/08/29 10:08:03;;;;;;;7.93;6.53;;;22.10;99.90;;;;;;5008624;28;20088;-78
2022/08/29 10:10:34;;;;;;;13.30;7.63;;;22.20;99.90;;;;;;5008803;28;20129;-82
2022/08/29 10:13:16;;;;;;;10.80;7.15;;;22.20;99.90;;;;;;5013591;28;20084;-82
2022/08/29 10:15:52;;;;;;;9.93;6.07;;;22.20;99.90;;;;;;5012844;28;20081;-80
2022/08/29 10:18:26;;;;;;;7.60;6.07;;;22.20;99.90;;;;;;5009689;28;20133;-82
2022/08/29 10:21:34;;;;;;;8.93;6.15;;;22.30;99.90;;;;;;5009470;28;20054;-81
2022/08/29 10:24:31;;;;;;;8.18;6.00;;;22.30;99.90;;;;;;4952241;28;20078;-81
2022/08/29 10:27:21;;;;;;;10.85;6.03;;;22.30;99.90;;;;;;5006806;28;20074;-81
2022/08/29 10:30:05;;;;;;;9.13;6.30;;;22.40;99.90;;;;;;5012193;28;20050;-80
2022/08/29 10:32:43;;;;;;;12.43;6.45;;;22.40;99.90;;;;;;5002174;28;20100;-82
2022/08/29 10:35:18;;;;;;;9.32;6.70;;;22.50;99.90;;;;;;5004867;28;20096;-80
2022/08/29 10:37:56;;;;;;;8.65;6.13;;;22.60;99.90;;;;;;4997170;28;20046;-79
2022/08/29 10:40:29;;;;;;;8.10;6.70;;;22.60;99.90;;;;;;4998995;28;20073;-80
2022/08/29 10:43:22;;;;;;;9.40;6.72;;;22.70;99.90;;;;;;4989121;28;20061;-80
2022/08/29 10:46:05;;;;;;;10.52;6.05;;;22.70;99.90;;;;;;4993213;28;20077;-80
2022/08/29 10:48:42;;;;;;;8.23;5.18;;;22.80;99.90;;;;;;5003294;28;20050;-80
2022/08/29 10:51:21;;;;;;;10.07;5.90;;;22.80;99.90;;;;;;4986558;28;20060;-79
2022/08/29 10:54:08;;;;;;;6.68;5.63;;;22.90;99.90;;;;;;5004732;28;20065;-80
2022/08/29 10:56:40;;;;;;;9.30;5.63;;;22.90;99.90;;;;;;5006391;28;20056;-79
2022/08/29 10:59:26;;;;;;;10.48;6.43;;;23.00;99.90;;;;;;5005541;28;20104;-78
2022/08/29 11:02:23;;;;;;;8.02;5.22;;;23.10;99.90;;;;;;5004630;28;20499;-80
2022/08/29 11:04:55;;;;;;;6.13;4.82;;;23.10;99.90;;;;;;5003362;28;20081;-80
2022/08/29 11:07:33;;;;;;;9.57;5.22;;;23.20;99.90;;;;;;4987639;28;20080;-80
2022/08/29 11:10:08;;;;;;;10.13;5.72;;;23.20;99.90;;;;;;5001350;28;20563;-79
2022/08/29 11:12:39;;;;;;;11.98;5.40;;;23.30;99.90;;;;;;5003367;28;20042;-78
2022/08/29 11:15:26;;;;;;;8.05;5.93;;;23.30;99.90;;;;;;5007360;28;20180;-79
2022/08/29 11:18:09;;;;;;;6.88;5.45;;;23.40;99.90;;;;;;5006663;28;20089;-80
2022/08/29 11:21:03;;;;;;;9.85;5.82;;;23.40;99.90;;;;;;5005173;28;20130;-78
2022/08/29 11:23:37;;;;;;;9.75;4.75;;;23.50;99.90;;;;;;5004902;28;20081;-79
2022/08/29 11:26:20;;;;;;;8.85;4.68;;;23.50;99.90;;;;;;5002377;28;20077;-80
2022/08/29 11:29:03;;;;;;;7.00;4.70;;;23.50;99.90;;;;;;5004781;28;20073;-77
2022/08/29 11:31:47;;;;;;;8.05;4.68;;;23.60;99.90;;;;;;5001906;28;20049;-80
2022/08/29 11:34:46;;;;;;;4.85;4.35;;;23.60;99.90;;;;;;5007134;28;20046;-79
2022/08/29 11:38:00;;;;;;;9.18;4.80;;;23.70;99.90;;;;;;5006252;28;20081;-80
2022/08/29 11:40:45;;;;;;;6.88;4.78;;;23.70;99.90;;;;;;4958497;28;20065;-78
2022/08/29 11:43:20;;;;;;;6.50;4.88;;;23.80;99.90;;;;;;5005697;28;20057;-78
2022/08/29 11:46:00;;;;;;;7.15;4.60;;;23.80;99.90;;;;;;5008546;28;20046;-80
2022/08/29 11:48:47;;;;;;;7.32;4.55;;;23.90;99.90;;;;;;5007590;28;20042;-80
2022/08/29 11:51:29;;;;;;;6.68;4.18;;;23.90;99.90;;;;;;5009408;28;20129;-81
2022/08/29 11:54:15;;;;;;;7.57;4.72;;;24.00;99.90;;;;;;5008997;28;20487;-78
2022/08/29 11:56:42;;;;;;;10.40;5.20;;;24.00;99.90;;;;;;5011407;28;20132;-80
2022/08/29 11:59:10;;;;;;;6.95;4.75;;;24.00;99.90;;;;;;5013049;28;20129;-77
2022/08/29 12:01:37;;;;;;;5.82;4.72;;;24.10;99.90;;;;;;5013573;28;20077;-79
2022/08/29 12:04:06;;;;;;;8.77;5.50;;;24.10;99.90;;;;;;5011558;28;20081;-79
2022/08/29 12:06:38;;;;;;;8.40;5.13;;;24.20;99.90;;;;;;5008623;28;20065;-80
2022/08/29 12:09:11;;;;;;;11.18;4.82;;;24.30;99.90;;;;;;5007491;28;20043;-78
2022/08/29 12:11:57;;;;;;;8.80;5.10;;;24.50;99.90;;;;;;5010247;28;20041;-80
2022/08/29 12:14:28;;;;;;;6.07;4.70;;;24.50;99.90;;;;;;5006320;28;20070;-80
2022/08/29 12:17:03;;;;;;;8.20;4.95;;;24.60;99.90;;;;;;5007992;28;20054;-76
2022/08/29 12:19:45;;;;;;;;;;;24.60;99.90;;;;;;5006673;28;20512;-80
2022/08/29 12:22:50;;;;;;;5.38;4.50;;;24.50;99.90;;;;;;5006076;28;19932;-81
2022/08/29 12:25:42;;;;;;;8.05;5.15;;;24.50;99.90;;;;;;5012508;28;20140;-82
2022/08/29 12:28:16;;;;;;;7.10;4.78;;;24.50;99.90;;;;;;5013168;28;20066;-78
2022/08/29 12:30:48;;;;;;;5.10;4.15;;;24.70;99.90;;;;;;5010554;28;20052;-80
2022/08/29 12:33:40;;;;;;;8.63;4.30;;;24.70;99.90;;;;;;5011782;28;20053;-79
2022/08/29 12:36:29;;;;;;;7.35;4.13;;;24.70;99.90;;;;;;5010680;28;20499;-82
2022/08/29 12:39:22;;;;;;;9.18;4.63;;;24.90;99.90;;;;;;5009360;28;20493;-79
2022/08/29 12:42:08;;;;;;;6.22;4.18;;;25.00;99.90;;;;;;5005734;28;20125;-81
2022/08/29 12:44:47;;;;;;;5.25;4.22;;;25.00;99.90;;;;;;5004539;28;20069;-81
2022/08/29 12:47:31;;;;;;;7.85;5.05;;;25.00;99.90;;;;;;4990681;28;20038;-81
2022/08/29 12:50:03;;;;;;;5.57;4.40;;;25.00;99.90;;;;;;5008750;28;20042;-80
2022/08/29 12:52:33;;;;;;;5.65;4.30;;;25.00;99.90;;;;;;5006257;28;20038;-81
2022/08/29 12:55:23;;;;;;;;;;;25.10;99.90;;;;;;5003862;28;20432;-80
2022/08/29 12:57:55;;;;;;;7.32;4.20;;;25.20;99.90;;;;;;4995406;28;20005;-80
2022/08/29 13:00:29;;;;;;;7.97;4.30;;;25.30;99.90;;;;;;5003179;28;20083;-80
2022/08/29 13:02:58;;;;;;;8.68;4.80;;;25.20;99.90;;;;;;5007800;28;20144;-81
2022/08/29 13:05:25;;;;;;;9.95;4.28;;;25.20;99.90;;;;;;5007215;28;20129;-81
2022/08/29 13:08:01;;;;;;;6.68;4.60;;;25.30;99.90;;;;;;5009662;28;20045;-81